Time;durP1;ratioP1;P1;durP2;ratioP2;P2;SDS_P1;SDS_P2;PMS_P1;PMS_P2;Temp;Humidity;BMP_temperature;BMP_pressure;BME280_temperature;BME280_humidity;BME280_pressure;Samples;Min_cycle;Max_cycle;Signal;HPM_P1;HPM_P2
2022/11/06 00:00:37;;;;;;;33.07;18.10;;;;;;;12.04;79.16;94402.94;5042428;28;20187;-78
2022/11/06 00:03:03;;;;;;;39.47;19.00;;;;;;;12.04;79.51;94405.59;5037062;28;20503;-78
2022/11/06 00:08:14;;;;;;;45.57;22.30;;;;;;;12.02;79.14;94402.41;5035508;28;20195;-78
2022/11/06 00:10:40;;;;;;;45.80;23.73;;;;;;;11.98;79.24;94393.31;5042461;28;20179;-78
2022/11/06 00:13:05;;;;;;;39.90;21.67;;;;;;;12.02;78.85;94399.75;5042217;28;20224;-78
2022/11/06 00:15:32;;;;;;;41.07;21.17;;;;;;;11.77;79.03;94365.69;5043799;28;20229;-78
2022/11/06 00:17:58;;;;;;;41.03;19.17;;;;;;;11.95;79.21;94396.41;5053402;28;20529;-78
2022/11/06 00:20:23;;;;;;;38.97;21.73;;;;;;;11.96;79.40;94398.81;5044394;28;20179;-78
2022/11/06 00:22:49;;;;;;;37.57;21.37;;;;;;;11.77;79.39;94378.88;5044400;28;20200;-78
2022/11/06 00:25:15;;;;;;;44.47;22.70;;;;;;;11.79;79.33;94386.56;5044474;28;20258;-78
2022/11/06 00:27:42;;;;;;;31.60;18.70;;;;;;;11.85;79.27;94385.66;5039670;28;20258;-79
2022/11/06 00:30:10;;;;;;;36.10;19.17;;;;;;;11.86;79.24;94388.03;5040943;28;20201;-78
2022/11/06 00:32:36;;;;;;;29.97;17.80;;;;;;;11.80;79.23;94377.63;5041752;28;20715;-79
2022/11/06 00:35:03;;;;;;;36.83;20.70;;;;;;;11.89;78.98;94387.59;5044925;28;20206;-79
2022/11/06 00:37:28;;;;;;;34.80;18.57;;;;;;;11.65;79.01;94355.13;5044480;28;20175;-79
2022/11/06 00:39:53;;;;;;;33.50;17.20;;;;;;;11.64;78.51;94348.25;5044014;28;20293;-78
2022/11/06 00:42:19;;;;;;;35.73;19.63;;;;;;;11.71;78.79;94356.84;5059251;28;20191;-79
2022/11/06 00:44:45;;;;;;;39.20;19.13;;;;;;;11.82;78.77;94391.38;5039510;28;20262;-79
2022/11/06 00:47:11;;;;;;;41.33;18.97;;;;;;;11.78;78.75;94388.38;5041432;28;20176;-78
2022/11/06 00:49:38;;;;;;;39.77;19.73;;;;;;;11.73;78.99;94389.06;5040672;28;20183;-78
2022/11/06 00:52:04;;;;;;;35.33;18.67;;;;;;;11.75;79.01;94385.44;5052526;28;20590;-78
2022/11/06 00:54:29;;;;;;;38.13;18.83;;;;;;;11.72;78.83;94384.00;5039620;28;20287;-79
2022/11/06 00:56:54;;;;;;;37.83;18.47;;;;;;;11.58;78.98;94367.63;5040294;28;20194;-78
2022/11/06 00:59:20;;;;;;;40.07;19.60;;;;;;;11.14;79.19;94304.91;5040722;28;20186;-78
2022/11/06 01:01:45;;;;;;;49.27;20.63;;;;;;;11.56;79.38;94366.25;5042099;28;20184;-78
2022/11/06 01:04:14;;;;;;;35.23;18.80;;;;;;;11.58;79.29;94367.63;5041179;28;20179;-78
2022/11/06 01:06:43;;;;;;;36.40;18.53;;;;;;;11.50;79.29;94359.25;5038817;28;20186;-78
2022/11/06 01:09:12;;;;;;;41.10;18.07;;;;;;;11.44;79.29;94349.59;5051624;28;20650;-78
2022/11/06 01:11:44;;;;;;;36.70;18.37;;;;;;;11.56;79.48;94371.50;5049244;28;20179;-78
2022/11/06 01:14:11;;;;;;;31.03;17.03;;;;;;;11.46;79.52;94377.34;5038718;28;20230;-78
2022/11/06 01:16:37;;;;;;;34.03;17.73;;;;;;;11.38;79.74;94364.50;5034461;28;20598;-78
2022/11/06 01:19:03;;;;;;;33.23;17.60;;;;;;;11.31;79.92;94363.81;5043177;28;20175;-78
2022/11/06 01:21:37;;;;;;;30.70;17.70;;;;;;;11.33;80.54;94367.00;5047458;28;20182;-78
2022/11/06 01:24:10;;;;;;;33.23;17.97;;;;;;;11.28;79.99;94354.53;5049102;28;20537;-78
2022/11/06 01:26:36;;;;;;;32.83;19.20;;;;;;;11.30;80.33;94370.91;5034950;28;20198;-78
2022/11/06 01:29:02;;;;;;;35.23;18.60;;;;;;;11.19;80.76;94361.16;5042761;28;20563;-78
2022/11/06 01:31:30;;;;;;;38.27;18.13;;;;;;;11.12;81.21;94365.72;5043102;28;20183;-78
2022/11/06 01:33:57;;;;;;;38.07;18.67;;;;;;;11.10;81.08;94359.06;5043184;28;20202;-78
2022/11/06 01:36:23;;;;;;;35.50;18.80;;;;;;;11.03;81.62;94361.00;5040000;28;20645;-78
2022/11/06 01:38:50;;;;;;;33.73;18.40;;;;;;;11.02;81.73;94356.75;5041322;28;20651;-78
2022/11/06 01:41:28;;;;;;;41.23;19.60;;;;;;;11.01;81.84;94358.59;5030901;28;20656;-78
2022/11/06 01:44:13;;;;;;;36.10;18.97;;;;;;;10.99;81.68;94352.75;5033181;28;20175;-78
2022/11/06 01:46:39;;;;;;;49.10;23.37;;;;;;;11.01;82.34;94357.78;5040147;28;20181;-78
2022/11/06 01:49:14;;;;;;;38.27;19.87;;;;;;;11.03;82.33;94355.75;5041616;28;20274;-78
2022/11/06 01:52:01;;;;;;;46.30;25.83;;;;;;;10.98;82.54;94358.25;5046081;28;20201;-78
2022/11/06 01:54:29;;;;;;;52.93;29.13;;;;;;;10.98;82.76;94353.00;5043071;28;20203;-78
2022/11/06 01:56:57;;;;;;;51.10;22.90;;;;;;;10.88;82.61;94332.47;5043095;28;21040;-78
2022/11/06 01:59:26;;;;;;;33.90;17.23;;;;;;;11.20;83.07;94351.41;5042787;28;20834;-78
2022/11/06 02:01:52;;;;;;;32.07;15.87;;;;;;;11.34;83.32;94339.63;5040656;28;20294;-78
2022/11/06 02:04:23;;;;;;;29.60;14.57;;;;;;;11.46;83.24;94340.44;5031924;28;20243;-78
2022/11/06 02:06:48;;;;;;;27.23;13.40;;;;;;;11.66;82.66;94343.56;5040781;28;20187;-78
2022/11/06 02:09:15;;;;;;;24.57;12.83;;;;;;;11.85;82.16;94338.19;5032456;28;20188;-78
2022/11/06 02:11:42;;;;;;;21.23;10.87;;;;;;;12.19;80.62;94347.09;5041022;28;20190;-78
2022/11/06 02:14:39;;;;;;;26.50;10.40;;;;;;;12.46;79.30;94342.84;5035833;28;20223;-78
2022/11/06 02:17:23;;;;;;;17.70;9.20;;;;;;;12.57;78.51;94330.66;5028287;28;20202;-78
2022/11/06 02:19:51;;;;;;;19.10;8.93;;;;;;;12.80;77.45;94339.25;5054522;28;20201;-78
2022/11/06 02:22:54;;;;;;;15.70;7.43;;;;;;;12.96;76.47;94335.06;5055969;28;20178;-79
2022/11/06 02:25:29;;;;;;;14.37;7.40;;;;;;;13.13;75.16;94338.56;5055784;28;20229;-78
2022/11/06 02:28:02;;;;;;;15.07;7.00;;;;;;;13.24;74.77;94328.94;5055708;28;20645;-79
2022/11/06 02:30:32;;;;;;;14.73;7.07;;;;;;;13.41;73.87;94336.88;5050022;28;20500;-78
2022/11/06 02:33:13;;;;;;;11.53;6.47;;;;;;;13.55;73.49;94349.56;5044252;28;20229;-78
2022/11/06 02:35:52;;;;;;;13.00;6.10;;;;;;;13.48;73.04;94316.38;5046150;28;20731;-78
2022/11/06 02:38:22;;;;;;;11.93;6.37;;;;;;;13.81;72.43;94347.28;5038207;28;20572;-78
2022/11/06 02:40:52;;;;;;;9.40;5.63;;;;;;;13.86;71.84;94345.50;5037801;28;20179;-79
2022/11/06 02:43:21;;;;;;;11.83;6.30;;;;;;;13.87;72.01;94347.09;5039580;28;20558;-79
2022/11/06 02:46:24;;;;;;;18.13;7.03;;;;;;;13.83;72.11;94345.19;5043693;28;20176;-78
2022/11/06 02:48:56;;;;;;;15.90;6.30;;;;;;;13.72;71.96;94319.63;5036999;28;20654;-79
2022/11/06 02:51:26;;;;;;;10.53;6.40;;;;;;;13.90;71.68;94349.28;5044641;28;20183;-79
2022/11/06 02:53:55;;;;;;;15.20;5.87;;;;;;;13.84;72.06;94336.19;5055437;28;20178;-79
2022/11/06 02:56:25;;;;;;;14.33;5.73;;;;;;;13.96;71.74;94372.09;5046520;28;20178;-78
2022/11/06 02:58:57;;;;;;;18.70;6.00;;;;;;;13.99;71.20;94357.59;5045572;28;20175;-78
2022/11/06 03:01:28;;;;;;;13.03;5.93;;;;;;;13.89;70.93;94336.28;5037571;28;20619;-79
2022/11/06 03:04:01;;;;;;;11.97;4.93;;;;;;;14.03;70.84;94365.81;5050174;28;20274;-79
2022/11/06 03:06:39;;;;;;;12.10;5.23;;;;;;;14.14;70.56;94364.94;5044351;28;20635;-79
2022/11/06 03:09:18;;;;;;;12.60;5.47;;;;;;;14.16;70.70;94361.00;5039423;28;20171;-79
2022/11/06 03:11:47;;;;;;;13.07;5.33;;;;;;;14.16;70.76;94368.13;5046209;28;20234;-79
2022/11/06 03:14:13;;;;;;;11.50;5.70;;;;;;;14.14;70.89;94365.72;5051254;28;20250;-79
2022/11/06 03:16:56;;;;;;;16.93;7.10;;;;;;;14.08;71.02;94373.84;5043224;28;20226;-79
2022/11/06 03:19:41;;;;;;;14.50;5.83;;;;;;;14.11;70.89;94368.06;5034503;28;20183;-79
2022/11/06 03:22:42;;;;;;;14.20;5.13;;;;;;;14.12;71.22;94388.19;5048240;28;20254;-79
2022/11/06 03:25:08;;;;;;;15.43;6.30;;;;;;;14.03;71.62;94382.50;5039419;28;20280;-79
2022/11/06 03:27:42;;;;;;;14.07;7.60;;;;;;;13.94;72.30;94384.78;5034633;28;20972;-79
2022/11/06 03:30:10;;;;;;;15.60;6.97;;;;;;;13.79;72.83;94383.75;5042903;28;20682;-79
2022/11/06 03:32:46;;;;;;;19.10;6.53;;;;;;;13.62;73.80;94386.41;5041437;28;20573;-79
2022/11/06 03:35:21;;;;;;;11.03;6.23;;;;;;;13.43;75.27;94392.97;5043300;28;20200;-79
2022/11/06 03:38:02;;;;;;;10.10;5.77;;;;;;;13.35;75.98;94393.34;5036365;28;20189;-79
2022/11/06 03:40:33;;;;;;;11.07;6.10;;;;;;;13.32;76.54;94392.00;5039339;28;20172;-79
2022/11/06 03:43:03;;;;;;;14.47;6.40;;;;;;;13.27;76.67;94385.81;5033017;28;20171;-79
2022/11/06 03:45:31;;;;;;;10.27;5.80;;;;;;;13.34;76.70;94392.56;5037431;28;20187;-79
2022/11/06 03:48:11;;;;;;;13.47;6.97;;;;;;;13.17;76.62;94352.91;5043782;28;20209;-79
2022/11/06 03:50:47;;;;;;;13.43;6.57;;;;;;;13.20;76.40;94354.25;5045145;28;20179;-79
2022/11/06 03:53:20;;;;;;;10.33;6.53;;;;;;;13.48;76.09;94387.78;5053837;28;20196;-79
2022/11/06 03:56:01;;;;;;;9.53;5.07;;;;;;;13.39;76.40;94360.94;5052437;28;20594;-79
2022/11/06 03:58:32;;;;;;;10.23;5.47;;;;;;;13.51;76.34;94380.16;5026747;28;20179;-79
2022/11/06 04:01:02;;;;;;;11.77;5.17;;;;;;;13.39;76.49;94368.88;5040721;28;20320;-79
2022/11/06 04:03:50;;;;;;;14.60;5.40;;;;;;;13.47;76.55;94383.53;5044192;28;20266;-79
2022/11/06 04:06:18;;;;;;;8.80;5.70;;;;;;;13.49;77.02;94386.75;5042746;28;20179;-79
2022/11/06 04:14:20;;;;;;;9.53;5.37;;;;;;;13.36;77.29;94392.31;5042084;28;20724;-79
2022/11/06 04:16:51;;;;;;;8.43;6.07;;;;;;;13.05;79.25;94383.84;5033370;28;20187;-78
2022/11/06 04:19:21;;;;;;;10.87;5.63;;;;;;;13.08;80.53;94404.50;5042503;28;20180;-79
2022/11/06 04:22:04;;;;;;;14.33;5.83;;;;;;;13.13;81.15;94399.34;5033272;28;20842;-79
2022/11/06 04:28:15;;;;;;;9.13;6.00;;;;;;;13.14;82.21;94393.03;5035726;28;20214;-79
2022/11/06 04:31:15;;;;;;;15.60;5.87;;;;;;;13.12;82.61;94376.56;5036477;28;20225;-79
2022/11/06 04:34:01;;;;;;;12.27;5.23;;;;;;;13.11;83.33;94400.59;5040954;28;20248;-79
2022/11/06 04:36:38;;;;;;;14.37;6.40;;;;;;;12.98;83.50;94369.97;5033067;28;20175;-79
2022/11/06 04:39:09;;;;;;;16.30;6.27;;;;;;;13.13;83.93;94390.59;5032923;28;20191;-79
2022/11/06 04:41:42;;;;;;;9.30;5.00;;;;;;;13.07;84.38;94392.31;5032426;28;20179;-79
2022/11/06 04:44:46;;;;;;;9.60;6.43;;;;;;;13.11;84.81;94395.31;5049132;28;20261;-78
2022/11/06 04:47:18;;;;;;;13.47;6.73;;;;;;;12.95;84.69;94381.03;5038421;28;20582;-78
2022/11/06 04:49:44;;;;;;;13.77;6.50;;;;;;;13.12;84.79;94400.34;5040071;28;20312;-78
2022/11/06 04:52:15;;;;;;;23.17;7.07;;;;;;;13.11;84.95;94390.81;5051101;28;20175;-79
2022/11/06 04:54:41;;;;;;;10.63;6.37;;;;;;;13.15;85.14;94407.81;5051211;28;20191;-78
2022/11/06 04:57:07;;;;;;;11.50;7.03;;;;;;;12.92;85.19;94381.50;5052411;28;20658;-78
2022/11/06 04:59:36;;;;;;;11.93;7.17;;;;;;;13.15;85.50;94417.59;5032861;28;20172;-77
2022/11/06 05:02:01;;;;;;;14.40;6.10;;;;;;;13.19;85.37;94411.59;5041007;28;20183;-77
2022/11/06 05:04:27;;;;;;;13.10;6.57;;;;;;;13.14;85.66;94416.00;5046962;28;20163;-78
2022/11/06 05:06:52;;;;;;;17.70;7.27;;;;;;;13.09;85.67;94408.75;5051786;28;20206;-78
2022/11/06 05:09:18;;;;;;;17.30;7.07;;;;;;;13.14;86.39;94437.16;5051533;28;20592;-77
2022/11/06 05:11:43;;;;;;;12.90;6.93;;;;;;;13.06;86.56;94419.00;5038838;28;20237;-77
2022/11/06 05:14:08;;;;;;;15.67;7.03;;;;;;;13.08;87.10;94430.94;5040397;28;20581;-78
2022/11/06 05:16:34;;;;;;;13.63;7.43;;;;;;;13.05;87.56;94436.69;5040551;28;20191;-77
2022/11/06 05:18:59;;;;;;;16.37;7.73;;;;;;;13.00;87.88;94454.28;5040767;28;20182;-78
2022/11/06 05:24:09;;;;;;;15.10;6.87;;;;;;;13.07;87.95;94458.38;5030571;28;20882;-77
2022/11/06 05:26:34;;;;;;;12.63;6.90;;;;;;;13.03;88.44;94453.81;5037333;28;20184;-77
2022/11/06 05:29:00;;;;;;;17.70;7.40;;;;;;;12.97;88.42;94447.66;5032693;28;20254;-78
2022/11/06 05:31:26;;;;;;;14.97;7.50;;;;;;;12.90;88.09;94432.94;5043447;28;20186;-78
2022/11/06 05:33:52;;;;;;;15.47;8.47;;;;;;;13.12;87.95;94460.34;5027962;28;20592;-76
2022/11/06 05:36:17;;;;;;;13.70;7.45;;;;;;;13.16;87.66;94457.00;5026296;28;20519;-77
2022/11/06 05:38:43;;;;;;;13.73;7.27;;;;;;;13.06;87.79;94450.72;5046846;28;20297;-77
2022/11/06 05:41:09;;;;;;;15.37;6.27;;;;;;;13.15;87.74;94460.69;5029604;28;20541;-77
2022/11/06 05:43:35;;;;;;;14.77;7.13;;;;;;;13.19;87.32;94461.03;5035194;28;20253;-78
2022/11/06 05:46:00;;;;;;;15.43;7.27;;;;;;;13.02;87.24;94431.88;5036234;28;20184;-77
2022/11/06 05:48:27;;;;;;;17.27;7.93;;;;;;;13.17;87.30;94469.19;5027566;28;20178;-77
2022/11/06 05:50:53;;;;;;;11.10;6.50;;;;;;;13.13;87.88;94456.66;5027826;28;20709;-76
2022/11/06 05:53:18;;;;;;;14.43;7.43;;;;;;;13.22;87.96;94476.41;5029414;28;20183;-76
2022/11/06 05:55:47;;;;;;;17.90;7.87;;;;;;;13.17;87.94;94478.94;5038984;28;20290;-76
2022/11/06 05:58:13;;;;;;;13.53;6.90;;;;;;;13.14;87.76;94469.69;5034828;28;20164;-77
2022/11/06 06:00:38;;;;;;;17.50;7.33;;;;;;;13.03;87.99;94481.06;5035523;28;20170;-78
2022/11/06 06:03:04;;;;;;;11.00;7.60;;;;;;;12.95;88.46;94457.63;5045153;28;20187;-77
2022/11/06 06:05:29;;;;;;;15.43;6.93;;;;;;;13.18;88.01;94491.13;5042456;28;20217;-76
2022/11/06 06:07:55;;;;;;;17.77;6.90;;;;;;;13.21;87.80;94486.19;5034250;28;20229;-77
2022/11/06 06:10:20;;;;;;;16.77;7.97;;;;;;;13.32;87.41;94486.38;5033647;28;20163;-76
2022/11/06 06:12:48;;;;;;;11.93;7.03;;;;;;;13.33;87.41;94494.06;5053292;28;20246;-76
2022/11/06 06:15:17;;;;;;;15.20;8.33;;;;;;;13.35;87.51;94488.53;5046047;28;20213;-76
2022/11/06 06:17:44;;;;;;;15.63;8.60;;;;;;;13.45;86.35;94494.00;5050982;28;20245;-77
2022/11/06 06:20:10;;;;;;;18.60;9.53;;;;;;;13.47;86.64;94489.28;5051222;28;20239;-78
2022/11/06 06:22:35;;;;;;;11.10;7.70;;;;;;;13.39;87.07;94510.84;5035204;28;20761;-76
2022/11/06 06:25:00;;;;;;;17.07;8.10;;;;;;;13.38;87.36;94491.53;5041050;28;20179;-76
2022/11/06 06:27:26;;;;;;;14.03;7.70;;;;;;;13.48;87.08;94509.41;5035788;28;20678;-76
2022/11/06 06:29:52;;;;;;;13.80;7.73;;;;;;;13.42;87.27;94518.28;5033708;28;20210;-76
2022/11/06 06:32:18;;;;;;;14.63;7.43;;;;;;;13.44;87.95;94521.50;5034061;28;20241;-77
2022/11/06 06:34:43;;;;;;;15.03;8.67;;;;;;;13.44;88.33;94513.56;5037966;28;20211;-77
2022/11/06 06:37:09;;;;;;;17.17;8.30;;;;;;;13.34;88.06;94493.03;5039362;28;20205;-76
2022/11/06 06:39:34;;;;;;;13.60;8.10;;;;;;;13.58;88.18;94513.03;5035349;28;20191;-76
2022/11/06 06:41:59;;;;;;;17.83;8.60;;;;;;;13.71;87.44;94527.00;5043487;28;20176;-77
2022/11/06 06:44:25;;;;;;;22.80;8.17;;;;;;;13.71;87.50;94534.94;5035833;28;20160;-76
2022/11/06 06:46:50;;;;;;;19.10;8.77;;;;;;;13.69;87.13;94535.16;5034151;28;20187;-76
2022/11/06 06:49:15;;;;;;;24.33;9.13;;;;;;;13.63;87.65;94530.03;5034246;28;20289;-77
2022/11/06 06:51:41;;;;;;;17.87;8.57;;;;;;;13.69;87.05;94527.22;5034965;28;20172;-76
2022/11/06 06:54:06;;;;;;;19.33;8.80;;;;;;;13.60;86.95;94518.06;5044559;28;20214;-76
2022/11/06 06:56:32;;;;;;;14.27;8.77;;;;;;;13.78;86.69;94533.75;5040093;28;20179;-76
2022/11/06 06:58:57;;;;;;;15.87;8.47;;;;;;;13.84;86.14;94539.91;5035975;28;20164;-75
2022/11/06 07:01:22;;;;;;;14.43;8.10;;;;;;;13.70;85.64;94502.38;5042193;28;20675;-75
2022/11/06 07:03:48;;;;;;;18.57;8.10;;;;;;;13.89;85.37;94532.88;5044418;28;20175;-75
2022/11/06 07:06:13;;;;;;;18.80;8.67;;;;;;;13.89;85.33;94546.13;5033216;28;20514;-74
2022/11/06 07:08:39;;;;;;;14.47;8.80;;;;;;;13.84;85.14;94566.38;5032925;28;20260;-75
2022/11/06 07:11:08;;;;;;;23.40;9.40;;;;;;;13.51;85.59;94520.31;5033494;28;20194;-75
2022/11/06 07:13:34;;;;;;;11.83;7.77;;;;;;;13.84;85.69;94564.53;5050390;28;20596;-75
2022/11/06 07:16:08;;;;;;;13.87;8.50;;;;;;;13.88;85.33;94565.69;5053099;28;20179;-75
2022/11/06 07:18:35;;;;;;;14.30;7.83;;;;;;;13.90;84.93;94555.66;5049576;28;20180;-75
2022/11/06 07:21:03;;;;;;;14.17;9.63;;;;;;;13.90;85.10;94562.78;5046138;28;20179;-75
2022/11/06 07:23:28;;;;;;;14.23;8.57;;;;;;;13.86;85.28;94545.78;5042356;28;20180;-75
2022/11/06 07:25:54;;;;;;;14.67;8.83;;;;;;;14.02;84.26;94565.38;5047120;28;20174;-76
2022/11/06 07:28:20;;;;;;;14.00;7.83;;;;;;;13.97;84.31;94561.59;5036110;28;20262;-75
2022/11/06 07:30:45;;;;;;;14.77;8.27;;;;;;;13.90;84.02;94544.28;5033186;28;20172;-76
2022/11/06 07:33:11;;;;;;;12.90;8.67;;;;;;;14.06;84.02;94567.31;5015738;28;20648;-76
2022/11/06 07:35:36;;;;;;;15.73;8.30;;;;;;;13.97;84.46;94571.38;5051164;28;20678;-76
2022/11/06 07:38:06;;;;;;;14.90;8.93;;;;;;;13.92;84.76;94568.66;5052638;28;20174;-76
2022/11/06 07:40:32;;;;;;;15.80;8.53;;;;;;;14.06;84.38;94580.53;5043506;28;20178;-77
2022/11/06 07:43:09;;;;;;;22.33;8.60;;;;;;;14.19;83.73;94584.72;5034446;28;20174;-76
2022/11/06 07:45:36;;;;;;;15.30;9.43;;;;;;;14.18;83.78;94570.66;5044844;28;20617;-77
2022/11/06 07:48:02;;;;;;;16.90;9.17;;;;;;;14.21;83.62;94569.41;5045272;28;20191;-77
2022/11/06 07:50:28;;;;;;;14.87;10.00;;;;;;;14.32;83.31;94581.78;5042145;28;20183;-77
2022/11/06 07:52:54;;;;;;;19.17;8.77;;;;;;;14.30;83.12;94576.69;5051070;28;20595;-77
2022/11/06 07:55:20;;;;;;;15.20;8.60;;;;;;;14.35;83.30;94579.44;5036299;28;20198;-77
2022/11/06 07:57:47;;;;;;;12.93;8.10;;;;;;;14.46;82.58;94588.38;5032724;28;20168;-77
2022/11/06 08:00:13;;;;;;;11.83;8.17;;;;;;;14.52;82.12;94582.13;5035515;28;20299;-77
2022/11/06 08:02:39;;;;;;;21.50;9.23;;;;;;;14.55;81.95;94597.53;5036898;28;20179;-78
2022/11/06 08:05:05;;;;;;;21.43;8.73;;;;;;;14.41;82.30;94564.47;5034079;28;20171;-77
2022/11/06 08:07:30;;;;;;;18.17;9.23;;;;;;;14.55;82.48;94589.56;5045115;28;20166;-77
2022/11/06 08:09:56;;;;;;;21.20;10.43;;;;;;;14.24;82.32;94553.84;5051985;28;20622;-77
2022/11/06 08:12:21;;;;;;;18.17;10.13;;;;;;;14.18;82.24;94544.19;5038844;28;20239;-77
2022/11/06 08:14:47;;;;;;;16.70;10.13;;;;;;;14.55;82.16;94599.38;5032159;28;20587;-77
2022/11/06 08:17:12;;;;;;;18.27;9.93;;;;;;;14.37;81.34;94568.59;5057730;28;20544;-77
2022/11/06 08:19:37;;;;;;;15.33;9.43;;;;;;;14.27;81.56;94560.50;5041310;28;20171;-77
2022/11/06 08:22:03;;;;;;;16.27;9.33;;;;;;;14.18;82.38;94559.31;5044071;28;20183;-77
2022/11/06 08:24:30;;;;;;;18.17;10.17;;;;;;;14.22;82.55;94578.94;5031762;28;20168;-77
2022/11/06 08:26:56;;;;;;;17.57;9.40;;;;;;;14.38;82.68;94594.03;5033676;28;20602;-76
2022/11/06 08:29:26;;;;;;;18.87;9.33;;;;;;;14.43;82.96;94614.56;5038359;28;20176;-76
2022/11/06 08:31:51;;;;;;;17.50;9.30;;;;;;;14.30;83.08;94586.50;5042921;28;20189;-77
2022/11/06 08:34:17;;;;;;;18.50;10.90;;;;;;;14.45;83.13;94610.59;5038366;28;20640;-76
2022/11/06 08:36:44;;;;;;;21.00;9.83;;;;;;;14.43;82.99;94602.13;5040824;28;20625;-77
2022/11/06 08:39:11;;;;;;;19.37;10.10;;;;;;;14.49;83.39;94603.78;5044739;28;20178;-77
2022/11/06 08:41:38;;;;;;;19.17;11.03;;;;;;;14.57;83.64;94613.19;5051445;28;20186;-77
2022/11/06 08:44:07;;;;;;;20.90;11.23;;;;;;;14.30;84.40;94567.97;5066716;28;20175;-76
2022/11/06 08:46:33;;;;;;;16.53;10.77;;;;;;;14.62;84.51;94616.69;5046810;28;20581;-76
2022/11/06 08:48:58;;;;;;;19.47;10.57;;;;;;;14.56;86.00;94620.31;5032281;28;20174;-76
2022/11/06 08:51:24;;;;;;;18.40;11.63;;;;;;;14.58;86.60;94620.09;5041122;28;20175;-76
2022/11/06 08:53:49;;;;;;;22.83;11.97;;;;;;;14.43;88.32;94623.31;5060869;28;20259;-75
2022/11/06 08:56:16;;;;;;;22.70;12.10;;;;;;;14.29;89.99;94629.91;5037540;28;20233;-76
2022/11/06 08:58:41;;;;;;;20.30;11.57;;;;;;;14.24;90.53;94629.81;5034355;28;20255;-76
2022/11/06 09:01:08;;;;;;;22.90;13.07;;;;;;;14.15;91.04;94639.19;5031463;28;20945;-76
2022/11/06 09:03:33;;;;;;;20.10;12.17;;;;;;;14.11;92.40;94640.69;5033850;28;20177;-76
2022/11/06 09:05:59;;;;;;;25.30;12.87;;;;;;;14.09;92.13;94645.44;5049364;28;20253;-76
2022/11/06 09:08:24;;;;;;;27.80;12.33;;;;;;;14.14;91.61;94645.53;5030441;28;20176;-76
2022/11/06 09:10:51;;;;;;;21.97;12.13;;;;;;;14.05;91.85;94628.41;5031127;28;20182;-76
2022/11/06 09:13:21;;;;;;;20.87;12.60;;;;;;;14.23;92.30;94647.56;5030428;28;20306;-76
2022/11/06 09:15:47;;;;;;;22.70;12.43;;;;;;;14.20;92.99;94639.28;5043280;28;20694;-76
2022/11/06 09:18:13;;;;;;;24.00;13.63;;;;;;;14.22;93.02;94627.41;5046112;28;20199;-76
2022/11/06 09:20:38;;;;;;;17.77;11.30;;;;;;;14.31;92.65;94651.66;5033268;28;20176;-76
2022/11/06 09:23:06;;;;;;;23.80;11.67;;;;;;;14.33;92.60;94646.94;5031117;28;20218;-76
2022/11/06 09:25:32;;;;;;;21.77;12.93;;;;;;;14.15;93.32;94623.31;5038820;28;20171;-77
2022/11/06 09:27:57;;;;;;;23.03;12.40;;;;;;;14.40;94.15;94637.00;5037295;28;20201;-77
2022/11/06 09:30:23;;;;;;;16.93;10.10;;;;;;;14.52;92.97;94639.59;5038156;28;20175;-77
2022/11/06 09:32:54;;;;;;;19.43;10.47;;;;;;;14.52;91.91;94643.06;5040957;28;20217;-76
2022/11/06 09:35:22;;;;;;;16.67;10.90;;;;;;;14.52;92.09;94637.75;5040142;28;20569;-77
2022/11/06 09:37:47;;;;;;;16.00;10.80;;;;;;;14.67;92.03;94647.78;5048680;28;20262;-76
2022/11/06 09:40:20;;;;;;;18.43;11.10;;;;;;;14.74;91.68;94645.78;5034128;28;20628;-76
2022/11/06 09:42:45;;;;;;;16.17;10.40;;;;;;;14.80;91.47;94651.94;5051177;28;20206;-77
2022/11/06 09:45:21;;;;;;;16.93;10.53;;;;;;;14.55;91.28;94625.84;5042272;28;20198;-77
2022/11/06 09:47:52;;;;;;;15.93;9.87;;;;;;;14.30;92.55;94615.63;5030496;28;20171;-77
2022/11/06 09:50:25;;;;;;;16.20;10.07;;;;;;;14.48;91.26;94641.91;5041087;28;20202;-78
2022/11/06 09:52:58;;;;;;;13.07;7.93;;;;;;;14.31;91.88;94649.81;5032601;28;20172;-80
2022/11/06 09:55:32;;;;;;;13.17;8.10;;;;;;;14.26;92.96;94656.88;5032692;28;20283;-78
2022/11/06 09:58:02;;;;;;;12.40;8.17;;;;;;;13.98;92.89;94616.16;5030731;28;20164;-76
2022/11/06 10:00:27;;;;;;;12.97;8.20;;;;;;;14.19;93.47;94654.34;5037442;28;20175;-77
2022/11/06 10:02:58;;;;;;;14.80;8.70;;;;;;;14.16;94.09;94651.38;5050236;28;20197;-76
2022/11/06 10:05:33;;;;;;;14.00;8.80;;;;;;;14.05;94.00;94633.72;5049061;28;20164;-76
2022/11/06 10:08:23;;;;;;;12.63;8.77;;;;;;;14.15;93.03;94650.59;5031240;28;20190;-77
2022/11/06 10:10:58;;;;;;;14.50;8.83;;;;;;;14.10;93.62;94645.19;5042653;28;20190;-77
2022/11/06 10:13:40;;;;;;;13.23;8.03;;;;;;;14.13;93.60;94635.97;5044641;28;20677;-77
2022/11/06 10:16:28;;;;;;;12.77;7.37;;;;;;;14.20;92.75;94641.91;5032536;28;20210;-77
2022/11/06 10:19:06;;;;;;;9.20;7.40;;;;;;;14.11;92.21;94641.50;5048749;28;20175;-76
2022/11/06 10:21:55;;;;;;;12.90;7.93;;;;;;;14.12;93.08;94645.75;5037295;28;20553;-76
2022/11/06 10:24:21;;;;;;;11.37;7.57;;;;;;;14.17;93.23;94650.34;5032307;28;20258;-77
2022/11/06 10:26:57;;;;;;;10.37;7.20;;;;;;;14.25;92.81;94647.31;5041425;28;20254;-78
2022/11/06 10:29:40;;;;;;;14.37;7.50;;;;;;;14.27;92.57;94651.31;5044596;28;20180;-78
2022/11/06 10:32:15;;;;;;;12.67;7.03;;;;;;;14.30;91.78;94653.50;5029489;28;20175;-78
2022/11/06 10:34:53;;;;;;;10.10;7.63;;;;;;;14.35;92.17;94652.78;5029744;28;20210;-78
2022/11/06 10:38:00;;;;;;;12.93;7.47;;;;;;;14.48;91.65;94644.56;5029303;28;20187;-78
2022/11/06 10:40:28;;;;;;;10.70;8.13;;;;;;;14.60;90.90;94642.66;5026529;28;20175;-78
2022/11/06 10:42:57;;;;;;;10.57;6.83;;;;;;;14.52;90.83;94629.81;5014656;28;20179;-78
2022/11/06 10:45:27;;;;;;;12.53;7.93;;;;;;;14.61;90.76;94641.63;5032328;28;20580;-78
2022/11/06 10:47:57;;;;;;;10.90;6.80;;;;;;;14.70;91.00;94645.44;5033628;28;20529;-78
2022/11/06 10:50:29;;;;;;;11.10;6.60;;;;;;;14.75;90.92;94647.38;5033067;28;20733;-78
2022/11/06 10:53:21;;;;;;;9.83;6.77;;;;;;;14.69;90.74;94649.16;5033045;28;20275;-77
2022/11/06 10:56:06;;;;;;;7.93;5.87;;;;;;;14.59;90.37;94642.88;5032509;28;20203;-77
2022/11/06 10:58:33;;;;;;;13.97;5.67;;;;;;;14.39;90.46;94616.88;5032635;28;20175;-77
2022/11/06 11:01:01;;;;;;;9.47;5.43;;;;;;;14.63;90.36;94646.66;5031761;28;20191;-78
2022/11/06 11:03:40;;;;;;;8.37;4.97;;;;;;;14.67;89.97;94651.25;5032826;28;20202;-78
2022/11/06 11:06:06;;;;;;;6.43;4.90;;;;;;;14.78;90.15;94646.09;5032844;28;20184;-78
2022/11/06 11:08:45;;;;;;;7.37;5.50;;;;;;;14.72;91.44;94656.59;5033003;28;20172;-77
2022/11/06 11:11:13;;;;;;;9.53;6.23;;;;;;;14.66;92.45;94652.28;5038392;28;20201;-77
2022/11/06 11:13:44;;;;;;;9.93;6.30;;;;;;;14.57;93.47;94647.63;5028502;28;20561;-75
2022/11/06 11:16:24;;;;;;;7.87;5.53;;;;;;;14.57;93.31;94656.38;5039813;28;20207;-79
2022/11/06 11:18:51;;;;;;;8.17;4.57;;;;;;;14.50;94.22;94652.28;5030653;28;20184;-76
2022/11/06 11:21:28;;;;;;;5.80;4.60;;;;;;;14.42;94.39;94652.66;5034047;28;20646;-78
2022/11/06 11:24:13;;;;;;;9.70;6.10;;;;;;;14.26;95.25;94649.72;5039227;28;20200;-78
2022/11/06 11:26:45;;;;;;;7.67;4.87;;;;;;;14.01;95.72;94625.44;5039010;28;20230;-77
2022/11/06 11:29:19;;;;;;;6.30;5.33;;;;;;;14.00;96.65;94649.50;5036362;28;20241;-75
2022/11/06 11:31:49;;;;;;;10.67;5.63;;;;;;;13.97;96.75;94642.84;5045916;28;20171;-78
2022/11/06 11:34:18;;;;;;;10.10;6.33;;;;;;;13.89;96.95;94627.34;5039032;28;20215;-77
2022/11/06 11:36:55;;;;;;;8.30;6.40;;;;;;;14.01;96.32;94637.88;5032990;28;20194;-75
2022/11/06 11:39:26;;;;;;;8.37;6.53;;;;;;;13.84;96.71;94622.75;5035917;28;20172;-77
2022/11/06 11:41:51;;;;;;;9.70;6.73;;;;;;;14.05;97.60;94641.66;5035596;28;20199;-76
2022/11/06 11:44:18;;;;;;;21.03;8.47;;;;;;;14.04;96.07;94638.19;5041003;28;20672;-77
2022/11/06 11:46:48;;;;;;;10.53;7.30;;;;;;;14.15;95.58;94629.41;5041952;28;20178;-77
2022/11/06 11:49:33;;;;;;;10.73;7.60;;;;;;;14.21;94.30;94628.44;5043639;28;20190;-78
2022/11/06 11:52:10;;;;;;;12.87;8.17;;;;;;;14.13;93.16;94641.25;5035222;28;20319;-77